NCAR-RAP Real-Time Weather Data

Output produced by METARs form (12 August 2020  18:30 UTC)
found at http://weather.rap.ucar.edu/surface/
 
KHON 121755Z AUTO 17007KT 10SM CLR 29/20 A2986 RMK AO2 SLP102 T02890200 10289 20183 53002
KHON 121655Z AUTO 19012G20KT 10SM CLR 28/21 A2986 RMK AO2 SLP102 T02780206
KHON 121555Z AUTO 17015G22KT 10SM CLR 26/21 A2986 RMK AO2 SLP102 T02610206
KHON 121455Z AUTO 16012G24KT 10SM CLR 24/21 A2986 RMK AO2 SLP101 T02440206 56009
KHON 121355Z AUTO 14013G18KT 10SM CLR 23/19 A2986 RMK AO2 SLP104 T02280194 TSNO
KHON 121255Z AUTO 15008KT 10SM CLR 21/18 A2987 RMK AO2 SLP106 T02060183 TSNO
KHON 121155Z AUTO 04007KT 10SM CLR 19/17 A2989 RMK AO2 SLP112 60000 70001 T01890172 10228 20189 58002 TSNO
KHON 121055Z AUTO 09009KT 10SM CLR 19/17 A2989 RMK AO2 SLP115 T01940172 TSNO
KHON 121002Z AUTO 03012KT 10SM FEW015 SCT022 21/18 A2990 RMK AO2 PRESFR T02060178 TSNO
KHON 120955Z AUTO 02013G25KT 10SM SCT015 BKN020 BKN026 21/18 A2991 RMK AO2 PRESFR SLP120 T02060178 TSNO
KHON 120939Z AUTO 34009KT 10SM BKN015 BKN021 OVC035 22/20 A2994 RMK AO2 T02170200
KHON 120916Z AUTO 33010G20KT 10SM BKN012 BKN017 21/20 A2991 RMK AO2 T02110200
KHON 120855Z AUTO 27007KT 10SM CLR 21/19 A2989 RMK AO2 PRESRR SLP115 60000 T02060194 53013
KHON 120755Z AUTO 14013G20KT 10SM CLR 22/19 A2983 RMK AO2 RAB06E17 SLP093 P0000 T02170194
KHON 120655Z AUTO 13011KT 10SM CLR 22/19 A2985 RMK AO2 SLP100 T02220194
KHON 120555Z AUTO 14012G21KT 10SM CLR 22/18 A2985 RMK AO2 SLP102 T02170183 10272 20217 402720150 58014
KHON 120455Z AUTO 13009KT 10SM CLR 22/19 A2986 RMK AO2 SLP104 T02170194
KHON 120355Z AUTO 13010KT 10SM CLR 22/20 A2991 RMK AO2 SLP121 T02220200
KHON 120255Z AUTO 12006KT 10SM CLR 24/21 A2990 RMK AO2 SLP116 T02390206 53013
KHON 120155Z AUTO 14006KT 10SM CLR 24/21 A2987 RMK AO2 SLP108 T02390206
KHON 120055Z AUTO 16010G14KT 10SM CLR 26/20 A2987 RMK AO2 SLP109 T02610200
KHON 112355Z AUTO 16012G20KT 10SM CLR 27/19 A2986 RMK AO2 SLP104 60001 T02720194 10272 20217 56004
KHON 112255Z AUTO 16013G22KT 10SM CLR 27/18 A2986 RMK AO2 PK WND 15026/2225 SLP106 T02720183
KHON 112155Z AUTO 16017G23KT 10SM CLR 27/18 A2985 RMK AO2 PK WND 16026/2143 SLP101 T02670178